createdAt,value
2023-04-16T00:03:35.050Z,20.97
2023-04-16T00:07:36.922Z,13.97
2023-04-16T00:11:39.720Z,18.50
2023-04-16T00:15:41.345Z,21.70
2023-04-16T00:19:42.729Z,23.23
2023-04-16T00:23:44.541Z,25.47
2023-04-16T00:27:47.535Z,22.17
2023-04-16T00:31:49.217Z,26.93
2023-04-16T00:35:50.871Z,24.73
2023-04-16T00:39:52.487Z,29.20
2023-04-16T00:43:55.228Z,26.37
2023-04-16T00:48:00.390Z,29.77
2023-04-16T00:52:02.081Z,29.37
2023-04-16T00:56:05.534Z,30.17
2023-04-16T01:00:09.681Z,27.93
2023-04-16T01:04:11.293Z,21.77
2023-04-16T01:08:15.858Z,23.43
2023-04-16T01:12:17.279Z,21.03
2023-04-16T01:16:20.066Z,26.53
2023-04-16T01:20:24.173Z,24.83
2023-04-16T01:24:27.111Z,27.47
2023-04-16T01:28:28.547Z,27.20
2023-04-16T01:32:32.129Z,25.17
2023-04-16T01:36:33.546Z,21.73
2023-04-16T01:40:37.774Z,23.37
2023-04-16T01:44:39.130Z,21.70
2023-04-16T01:48:40.818Z,23.73
2023-04-16T01:52:42.450Z,21.00
2023-04-16T01:56:45.256Z,26.77
2023-04-16T02:00:47.174Z,25.17
2023-04-16T02:04:48.584Z,22.77
2023-04-16T02:08:50.055Z,21.10
2023-04-16T02:12:52.996Z,16.03
2023-04-16T02:16:55.657Z,17.70
2023-04-16T02:21:01.014Z,21.60
2023-04-16T02:25:02.690Z,22.13
2023-04-16T02:29:05.715Z,25.70
2023-04-16T02:33:09.044Z,27.70
2023-04-16T02:37:10.623Z,28.23
2023-04-16T02:41:12.035Z,24.87
2023-04-16T02:45:15.096Z,28.10
2023-04-16T02:49:16.534Z,24.70
2023-04-16T02:53:17.936Z,25.17
2023-04-16T02:57:19.360Z,21.27
2023-04-16T03:01:22.161Z,22.53
2023-04-16T03:05:23.955Z,17.50
2023-04-16T03:09:25.361Z,22.97
2023-04-16T03:13:26.763Z,19.20
2023-04-16T03:17:29.901Z,23.43
2023-04-16T03:21:31.317Z,25.67
2023-04-16T03:25:32.688Z,23.03
2023-04-16T03:29:36.629Z,21.33
2023-04-16T03:33:39.802Z,22.50
2023-04-16T03:37:41.165Z,23.27
2023-04-16T03:41:42.763Z,27.17
2023-04-16T03:45:44.377Z,24.80
2023-04-16T03:49:47.405Z,22.33
2023-04-16T03:53:48.968Z,22.10
2023-04-16T03:57:50.350Z,24.10
2023-04-16T04:01:51.791Z,22.97
2023-04-16T04:05:54.892Z,26.30
2023-04-16T04:09:56.269Z,24.70
2023-04-16T04:13:57.682Z,22.07
2023-04-16T04:17:59.935Z,27.30
2023-04-16T04:22:03.460Z,26.67
2023-04-16T04:26:05.037Z,24.43
2023-04-16T04:30:07.973Z,21.73
2023-04-16T04:34:09.420Z,23.40
2023-04-16T04:38:14.299Z,26.27
2023-04-16T04:42:18.452Z,20.77
2023-04-16T04:46:19.960Z,28.23
2023-04-16T04:50:21.536Z,21.33
2023-04-16T04:54:24.267Z,20.90
2023-04-16T04:58:25.659Z,26.73
2023-04-16T05:02:27.254Z,26.93
2023-04-16T05:06:29.703Z,24.43
2023-04-16T05:10:32.494Z,31.97
2023-04-16T05:14:33.957Z,24.17
2023-04-16T05:18:35.378Z,23.93
2023-04-16T05:22:36.904Z,29.40
2023-04-16T05:26:39.834Z,26.03
2023-04-16T05:30:41.249Z,25.53
2023-04-16T05:34:42.664Z,23.23
2023-04-16T05:38:44.550Z,24.67
2023-04-16T05:42:47.533Z,24.67
2023-04-16T05:46:48.908Z,25.60
2023-04-16T05:50:50.281Z,29.77
2023-04-16T05:54:51.792Z,24.73
2023-04-16T05:58:54.535Z,25.10
2023-04-16T06:02:56.214Z,23.50
2023-04-16T06:06:57.660Z,25.67
2023-04-16T06:10:59.393Z,26.83
2023-04-16T06:15:02.247Z,24.50
2023-04-16T06:19:03.690Z,23.17
2023-04-16T06:23:05.306Z,24.07
2023-04-16T06:27:06.712Z,25.77
2023-04-16T06:31:09.473Z,25.93
2023-04-16T06:35:10.933Z,26.33
2023-04-16T06:39:12.577Z,26.37
2023-04-16T06:43:14.016Z,27.20
2023-04-16T06:47:17.235Z,25.63
2023-04-16T06:51:18.887Z,24.90
2023-04-16T06:55:20.356Z,26.60
2023-04-16T06:59:21.766Z,25.83
2023-04-16T07:03:24.674Z,25.07
2023-04-16T07:07:26.165Z,20.67
2023-04-16T07:11:27.646Z,21.13
2023-04-16T07:15:29.045Z,23.67
2023-04-16T07:19:32.014Z,24.97
2023-04-16T07:23:33.603Z,25.30
2023-04-16T07:27:34.979Z,19.47
2023-04-16T07:31:36.419Z,19.33
2023-04-16T07:35:39.371Z,17.80
2023-04-16T07:39:40.838Z,18.40
2023-04-16T07:43:42.228Z,19.37
2023-04-16T07:47:43.664Z,19.53
2023-04-16T07:51:46.827Z,17.40
2023-04-16T07:55:48.224Z,17.70
2023-04-16T07:59:49.641Z,13.27
2023-04-16T08:03:51.252Z,18.47
2023-04-16T08:07:54.085Z,22.93
2023-04-16T08:11:55.551Z,18.23
2023-04-16T08:15:57.082Z,31.23
2023-04-16T08:19:58.557Z,38.73
2023-04-16T08:24:01.310Z,42.10
2023-04-16T08:28:02.683Z,46.93
2023-04-16T08:32:04.162Z,48.97
2023-04-16T08:36:06.196Z,52.50
2023-04-16T08:40:09.692Z,50.77
2023-04-16T08:44:18.497Z,53.40
2023-04-16T08:48:21.607Z,53.63
2023-04-16T08:52:25.170Z,56.10
2023-04-16T08:56:28.672Z,64.37
2023-04-16T09:00:31.724Z,64.67
2023-04-16T09:04:34.266Z,60.53
2023-04-16T09:08:35.850Z,62.63
2023-04-16T09:12:40.141Z,62.47
2023-04-16T09:16:41.992Z,56.33
2023-04-16T09:20:43.472Z,55.47
2023-04-16T09:24:44.968Z,46.70
2023-04-16T09:28:48.646Z,44.30
2023-04-16T09:32:50.804Z,44.00
2023-04-16T09:36:52.570Z,40.63
2023-04-16T09:41:06.322Z,42.60
2023-04-16T09:45:10.009Z,32.70
2023-04-16T09:49:14.652Z,35.53
2023-04-16T09:53:23.891Z,31.80
2023-04-16T09:57:25.321Z,29.93
2023-04-16T10:01:30.334Z,23.90
2023-04-16T10:05:31.831Z,23.57
2023-04-16T10:09:37.493Z,24.93
2023-04-16T10:13:39.024Z,30.23
2023-04-16T10:17:42.894Z,32.47
2023-04-16T10:21:45.571Z,27.73
2023-04-16T10:25:48.738Z,32.70
2023-04-16T10:29:50.655Z,30.43
2023-04-16T10:33:54.375Z,29.17
2023-04-16T10:37:56.607Z,27.93
2023-04-16T10:42:09.117Z,28.67
2023-04-16T10:46:23.974Z,27.83
2023-04-16T10:50:34.720Z,26.47
2023-04-16T10:54:36.553Z,27.53
2023-04-16T10:58:38.178Z,28.00
2023-04-16T11:02:40.958Z,27.33
2023-04-16T11:07:00.715Z,25.57
2023-04-16T11:11:05.283Z,26.87
2023-04-16T11:15:08.556Z,25.30
2023-04-16T11:19:16.196Z,26.50
2023-04-16T11:23:18.943Z,26.27
2023-04-16T11:27:20.347Z,24.27
2023-04-16T11:31:21.923Z,22.57
2023-04-16T11:35:23.532Z,25.10
2023-04-16T11:39:26.347Z,22.60
2023-04-16T11:43:27.805Z,25.20
2023-04-16T11:47:30.411Z,24.60
2023-04-16T11:51:31.987Z,23.77
2023-04-16T11:55:43.551Z,27.90
2023-04-16T12:00:01.553Z,22.20
2023-04-16T12:04:04.934Z,24.90
2023-04-16T12:08:08.175Z,24.30
2023-04-16T12:12:27.275Z,26.77
2023-04-16T12:16:28.809Z,24.27
2023-04-16T12:20:39.760Z,22.27
2023-04-16T12:24:41.249Z,24.27
2023-04-16T12:28:44.221Z,21.57
2023-04-16T12:32:47.386Z,20.63
2023-04-16T12:37:02.504Z,27.83
2023-04-16T12:41:04.115Z,20.80
2023-04-16T12:45:07.707Z,21.40
2023-04-16T12:49:11.032Z,21.40
2023-04-16T12:53:12.901Z,20.77
2023-04-16T12:57:14.274Z,19.53
2023-04-16T13:01:17.024Z,15.43
2023-04-16T13:05:18.711Z,15.80
2023-04-16T13:09:20.125Z,16.10
2023-04-16T13:13:21.495Z,14.73
2023-04-16T13:17:24.377Z,14.43
2023-04-16T13:21:25.906Z,16.10
2023-04-16T13:25:27.318Z,16.07
2023-04-16T13:29:28.808Z,17.13
2023-04-16T13:33:31.979Z,13.77
2023-04-16T13:37:34.512Z,14.10
2023-04-16T13:41:35.969Z,15.83
2023-04-16T13:45:37.891Z,16.80
2023-04-16T13:49:40.608Z,15.03
2023-04-16T13:53:41.970Z,15.57
2023-04-16T13:57:43.347Z,16.40
2023-04-16T14:01:44.779Z,16.63
2023-04-16T14:05:48.014Z,15.63
2023-04-16T14:09:49.394Z,16.50
2023-04-16T14:13:50.805Z,16.07
2023-04-16T14:17:52.337Z,15.10
2023-04-16T14:21:55.143Z,14.53
2023-04-16T14:25:56.789Z,15.37
2023-04-16T14:29:58.174Z,14.87
2023-04-16T14:33:59.734Z,13.67
2023-04-16T14:38:02.782Z,13.97
2023-04-16T14:42:04.679Z,16.57
2023-04-16T14:46:06.143Z,18.37
2023-04-16T14:50:08.543Z,16.53
2023-04-16T14:54:11.324Z,15.60
2023-04-16T14:58:12.710Z,15.50
2023-04-16T15:02:14.360Z,14.67
2023-04-16T15:06:16.659Z,16.27
2023-04-16T15:10:19.712Z,14.00
2023-04-16T15:14:21.258Z,15.83
2023-04-16T15:18:22.631Z,13.97
2023-04-16T15:22:24.077Z,14.00
2023-04-16T15:26:26.839Z,15.50
2023-04-16T15:30:28.236Z,17.77
2023-04-16T15:34:29.707Z,18.23
2023-04-16T15:38:31.065Z,17.03
2023-04-16T15:42:34.344Z,22.03
2023-04-16T15:46:35.823Z,20.57
2023-04-16T15:50:37.446Z,21.27
2023-04-16T15:54:39.002Z,20.43
2023-04-16T15:58:41.850Z,21.43
2023-04-16T16:02:44.675Z,21.57
2023-04-16T16:06:46.363Z,24.30
2023-04-16T16:10:47.824Z,24.33
2023-04-16T16:14:50.600Z,23.87
2023-04-16T16:18:52.062Z,21.33
2023-04-16T16:22:53.518Z,22.27
2023-04-16T16:26:55.172Z,23.47
2023-04-16T16:31:00.358Z,23.00
2023-04-16T16:35:02.363Z,21.37
2023-04-16T16:39:04.342Z,24.17
2023-04-16T16:43:05.860Z,21.10
2023-04-16T16:47:08.787Z,26.50
2023-04-16T16:51:10.344Z,22.93
2023-04-16T16:55:11.768Z,24.70
2023-04-16T16:59:13.469Z,22.27
2023-04-16T17:03:16.563Z,26.17
2023-04-16T17:07:18.284Z,25.60
2023-04-16T17:11:19.740Z,21.77
2023-04-16T17:15:21.941Z,21.97
2023-04-16T17:19:25.121Z,22.63
2023-04-16T17:23:26.582Z,24.47
2023-04-16T17:27:28.033Z,26.53
2023-04-16T17:31:29.493Z,23.00
2023-04-16T17:35:32.353Z,30.23
2023-04-16T17:39:33.753Z,20.23
2023-04-16T17:43:35.177Z,23.23
2023-04-16T17:47:37.269Z,21.33
2023-04-16T17:51:40.078Z,23.93
2023-04-16T17:55:50.156Z,24.43
2023-04-16T17:59:51.561Z,22.10
2023-04-16T18:03:53.172Z,25.10
2023-04-16T18:07:56.023Z,26.07
2023-04-16T18:11:57.629Z,21.93
2023-04-16T18:15:59.178Z,21.53
2023-04-16T18:20:00.650Z,22.83
2023-04-16T18:24:04.872Z,27.20
2023-04-16T18:28:06.314Z,26.37
2023-04-16T18:32:11.429Z,24.67
2023-04-16T18:36:13.524Z,21.63
2023-04-16T18:40:16.458Z,24.50
2023-04-16T18:44:18.067Z,23.20
2023-04-16T18:48:19.491Z,21.87
2023-04-16T18:52:20.908Z,26.10
2023-04-16T18:56:23.705Z,25.37
2023-04-16T19:00:25.130Z,23.20
2023-04-16T19:04:26.736Z,24.40
2023-04-16T19:08:28.334Z,22.73
2023-04-16T19:12:32.410Z,22.00
2023-04-16T19:16:34.118Z,21.80
2023-04-16T19:20:36.268Z,22.43
2023-04-16T19:24:37.657Z,22.83
2023-04-16T19:28:40.766Z,29.00
2023-04-16T19:32:42.305Z,26.43
2023-04-16T19:36:43.759Z,22.57
2023-04-16T19:40:45.635Z,18.60
2023-04-16T19:44:48.410Z,22.87
2023-04-16T19:48:49.877Z,24.30
2023-04-16T19:52:51.339Z,25.97
2023-04-16T19:56:52.725Z,24.77
2023-04-16T20:00:56.526Z,25.73
2023-04-16T20:04:58.025Z,25.50
2023-04-16T20:09:00.470Z,31.10
2023-04-16T20:13:01.884Z,27.67
2023-04-16T20:17:04.878Z,22.60
2023-04-16T20:21:06.427Z,26.57
2023-04-16T20:25:09.334Z,25.93
2023-04-16T20:29:10.860Z,26.47
2023-04-16T20:33:13.910Z,24.73
2023-04-16T20:37:15.396Z,26.03
2023-04-16T20:41:17.078Z,23.47
2023-04-16T20:45:20.795Z,25.23
2023-04-16T20:49:23.972Z,26.57
2023-04-16T20:53:25.508Z,25.20
2023-04-16T20:57:26.877Z,22.20
2023-04-16T21:01:28.538Z,23.40
2023-04-16T21:05:31.303Z,23.17
2023-04-16T21:09:33.010Z,24.33
2023-04-16T21:13:34.448Z,24.60
2023-04-16T21:17:36.147Z,21.20
2023-04-16T21:21:38.973Z,27.73
2023-04-16T21:25:40.497Z,23.67
2023-04-16T21:29:41.973Z,23.00
2023-04-16T21:33:43.513Z,19.40
2023-04-16T21:37:46.300Z,20.93
2023-04-16T21:41:47.971Z,25.67
2023-04-16T21:45:52.089Z,24.77
2023-04-16T21:49:53.704Z,24.93
2023-04-16T21:53:56.757Z,24.50
2023-04-16T21:57:58.202Z,25.43
2023-04-16T22:01:59.893Z,26.13
2023-04-16T22:06:01.774Z,24.00
2023-04-16T22:10:05.655Z,26.43
2023-04-16T22:14:07.182Z,26.77
2023-04-16T22:18:08.725Z,27.53
2023-04-16T22:22:11.035Z,27.40
2023-04-16T22:26:13.767Z,28.13
2023-04-16T22:30:15.443Z,29.20
2023-04-16T22:34:16.827Z,30.17
2023-04-16T22:38:18.230Z,31.00
2023-04-16T22:42:21.025Z,30.13
2023-04-16T22:46:22.756Z,32.20
2023-04-16T22:50:24.475Z,34.07
2023-04-16T22:54:27.998Z,34.83
2023-04-16T22:58:30.790Z,33.57
2023-04-16T23:02:32.235Z,41.80
2023-04-16T23:06:35.993Z,36.37
2023-04-16T23:10:37.618Z,47.27
2023-04-16T23:14:40.432Z,38.27
2023-04-16T23:18:41.848Z,39.47
2023-04-16T23:22:43.319Z,39.90
2023-04-16T23:26:45.059Z,43.33
2023-04-16T23:30:51.393Z,47.00
2023-04-16T23:34:52.948Z,50.90
2023-04-16T23:38:54.966Z,44.37
2023-04-16T23:42:56.416Z,55.67
2023-04-16T23:46:59.219Z,50.37
2023-04-16T23:51:00.770Z,52.57
2023-04-16T23:55:02.337Z,52.27
2023-04-16T23:59:03.720Z,53.33
